Observations for FALCONARA IT-AFB, Italy (LIPY)

LIPY 100150Z 20004KT CAVOK 10/03 Q1010  
LIPY 100050Z 20005KT CAVOK 07/04 Q1009  
LIPY 092350Z 19004KT 9999 FEW030 09/04 Q1009
LIPY 092250Z VRB01KT 9999 SCT040 05/03 Q1009
LIPY 092150Z VRB01KT 9999 SCT040 05/04 Q1009
LIPY 092050Z 19005KT 9999 SCT040 07/04 Q1008
LIPY 091950Z 18004KT 9999 SCT030 09/04 Q1008
LIPY 091850Z 20004KT 9999 SCT030 10/04 Q1008
LIPY 091750Z 22003KT 180V310 9999 FEW030 11/04 Q1007
LIPY 091650Z VRB01KT CAVOK 11/06 Q1007  
LIPY 091550Z 32012KT CAVOK 13/08 Q1007  
LIPY 091450Z 25013KT 220V280 CAVOK 16/07 Q1006  
LIPY 091350Z 24019KT CAVOK 16/06 Q1005  
LIPY 091250Z 22015KT CAVOK 17/07 Q1006  
LIPY 091150Z 22015KT 9999 FEW045 17/06 Q1006
LIPY 091050Z 21012KT 9999 FEW045 17/06 Q1007
LIPY 090950Z 22017KT CAVOK 16/05 Q1007  
LIPY 090850Z 22012KT 190V250 CAVOK 15/05 Q1008  
LIPY 090750Z 20013KT CAVOK 13/05 Q1008  
LIPY 090650Z 20010KT CAVOK 11/05 Q1009  
LIPY 090550Z 19007KT CAVOK 10/04 Q1011  
LIPY 090458Z 18007KT CAVOK 09/02 Q1011